sensor_id;sensor_type;location;lat;lon;timestamp;pressure;altitude;pressure_sealevel;temperature;humidity
7986;BME280;4038;42.612;23.066;2022-09-02T00:01:47;92832.63;;;21.57;82.89
7986;BME280;4038;42.612;23.066;2022-09-02T00:04:21;92834.03;;;21.66;82.48
7986;BME280;4038;42.612;23.066;2022-09-02T00:06:48;92832.72;;;21.50;83.67
7986;BME280;4038;42.612;23.066;2022-09-02T00:09:16;92826.31;;;21.57;83.85
7986;BME280;4038;42.612;23.066;2022-09-02T00:11:43;92821.97;;;21.98;82.00
7986;BME280;4038;42.612;23.066;2022-09-02T00:14:16;92817.13;;;21.81;82.66
7986;BME280;4038;42.612;23.066;2022-09-02T00:16:43;92827.16;;;21.67;83.05
7986;BME280;4038;42.612;23.066;2022-09-02T00:19:17;92829.75;;;21.65;83.66
7986;BME280;4038;42.612;23.066;2022-09-02T00:21:43;92835.31;;;21.48;84.68
7986;BME280;4038;42.612;23.066;2022-09-02T00:24:09;92833.59;;;21.18;86.48
7986;BME280;4038;42.612;23.066;2022-09-02T00:26:35;92848.03;;;20.74;89.34
7986;BME280;4038;42.612;23.066;2022-09-02T00:29:00;92839.75;;;21.33;86.62
7986;BME280;4038;42.612;23.066;2022-09-02T00:31:26;92844.22;;;21.54;84.71
7986;BME280;4038;42.612;23.066;2022-09-02T00:33:53;92840.41;;;21.24;86.42
7986;BME280;4038;42.612;23.066;2022-09-02T00:36:19;92852.56;;;21.36;86.24
7986;BME280;4038;42.612;23.066;2022-09-02T00:38:45;92856.09;;;21.37;86.54
7986;BME280;4038;42.612;23.066;2022-09-02T00:41:11;92842.81;;;21.03;87.76
7986;BME280;4038;42.612;23.066;2022-09-02T00:43:46;92853.59;;;20.99;88.65
7986;BME280;4038;42.612;23.066;2022-09-02T00:46:16;92864.41;;;20.70;90.48
7986;BME280;4038;42.612;23.066;2022-09-02T00:48:46;92865.50;;;20.99;89.64
7986;BME280;4038;42.612;23.066;2022-09-02T00:51:13;92849.72;;;20.45;93.50
7986;BME280;4038;42.612;23.066;2022-09-02T00:53:41;92848.50;;;20.23;94.51
7986;BME280;4038;42.612;23.066;2022-09-02T00:56:13;92850.44;;;20.05;96.43
7986;BME280;4038;42.612;23.066;2022-09-02T00:58:40;92842.63;;;20.11;97.24
7986;BME280;4038;42.612;23.066;2022-09-02T01:01:08;92851.81;;;20.29;96.16
7986;BME280;4038;42.612;23.066;2022-09-02T01:03:34;92860.97;;;20.54;94.38
7986;BME280;4038;42.612;23.066;2022-09-02T01:06:00;92866.09;;;20.33;95.39
7986;BME280;4038;42.612;23.066;2022-09-02T01:08:28;92867.06;;;20.60;94.69
7986;BME280;4038;42.612;23.066;2022-09-02T01:10:59;92865.00;;;20.36;96.74
7986;BME280;4038;42.612;23.066;2022-09-02T01:13:27;92865.56;;;20.27;97.29
7986;BME280;4038;42.612;23.066;2022-09-02T01:16:08;92865.16;;;20.71;94.50
7986;BME280;4038;42.612;23.066;2022-09-02T01:18:35;92870.75;;;20.95;92.42
7986;BME280;4038;42.612;23.066;2022-09-02T01:21:02;92848.50;;;20.88;91.76
7986;BME280;4038;42.612;23.066;2022-09-02T01:23:29;92874.31;;;21.13;90.71
7986;BME280;4038;42.612;23.066;2022-09-02T01:25:56;92866.84;;;21.16;90.59
7986;BME280;4038;42.612;23.066;2022-09-02T01:28:22;92866.34;;;20.85;90.42
7986;BME280;4038;42.612;23.066;2022-09-02T01:30:51;92851.00;;;20.04;94.84
7986;BME280;4038;42.612;23.066;2022-09-02T01:33:18;92876.75;;;20.12;96.56
7986;BME280;4038;42.612;23.066;2022-09-02T01:35:45;92880.56;;;19.92;96.69
7986;BME280;4038;42.612;23.066;2022-09-02T01:38:11;92877.19;;;20.01;96.22
7986;BME280;4038;42.612;23.066;2022-09-02T01:40:36;92870.00;;;20.38;94.28
7986;BME280;4038;42.612;23.066;2022-09-02T01:43:09;92861.28;;;19.86;97.81
7986;BME280;4038;42.612;23.066;2022-09-02T01:45:37;92867.22;;;19.82;98.57
7986;BME280;4038;42.612;23.066;2022-09-02T01:48:03;92859.53;;;20.06;96.77
7986;BME280;4038;42.612;23.066;2022-09-02T01:50:30;92854.25;;;20.25;95.56
7986;BME280;4038;42.612;23.066;2022-09-02T01:52:58;92843.44;;;20.37;95.03
7986;BME280;4038;42.612;23.066;2022-09-02T01:55:26;92839.75;;;20.26;94.97
7986;BME280;4038;42.612;23.066;2022-09-02T01:57:51;92823.72;;;20.10;94.79
7986;BME280;4038;42.612;23.066;2022-09-02T02:00:16;92832.56;;;19.76;96.72
7986;BME280;4038;42.612;23.066;2022-09-02T02:02:42;92824.13;;;19.99;96.35
7986;BME280;4038;42.612;23.066;2022-09-02T02:05:07;92833.34;;;19.69;97.84
7986;BME280;4038;42.612;23.066;2022-09-02T02:07:33;92828.56;;;19.54;99.09
7986;BME280;4038;42.612;23.066;2022-09-02T02:09:59;92823.84;;;19.79;97.64
7986;BME280;4038;42.612;23.066;2022-09-02T02:12:24;92817.16;;;19.82;97.85
7986;BME280;4038;42.612;23.066;2022-09-02T02:14:50;92810.81;;;19.89;97.17
7986;BME280;4038;42.612;23.066;2022-09-02T02:17:16;92808.69;;;20.05;95.35
7986;BME280;4038;42.612;23.066;2022-09-02T02:19:41;92798.78;;;19.87;95.66
7986;BME280;4038;42.612;23.066;2022-09-02T02:22:08;92799.97;;;20.09;95.42
7986;BME280;4038;42.612;23.066;2022-09-02T02:24:34;92789.13;;;20.20;94.03
7986;BME280;4038;42.612;23.066;2022-09-02T02:27:00;92794.22;;;20.07;94.61
7986;BME280;4038;42.612;23.066;2022-09-02T02:29:25;92787.94;;;19.66;97.17
7986;BME280;4038;42.612;23.066;2022-09-02T02:31:51;92793.06;;;19.77;96.66
7986;BME280;4038;42.612;23.066;2022-09-02T02:34:16;92801.22;;;19.75;97.08
7986;BME280;4038;42.612;23.066;2022-09-02T02:36:42;92796.34;;;19.91;96.12
7986;BME280;4038;42.612;23.066;2022-09-02T02:39:09;92798.38;;;19.91;95.47
7986;BME280;4038;42.612;23.066;2022-09-02T02:41:36;92800.50;;;19.67;96.46
7986;BME280;4038;42.612;23.066;2022-09-02T02:44:02;92798.47;;;20.08;93.56
7986;BME280;4038;42.612;23.066;2022-09-02T02:46:28;92791.13;;;20.27;92.97
7986;BME280;4038;42.612;23.066;2022-09-02T02:48:55;92791.63;;;20.41;90.92
7986;BME280;4038;42.612;23.066;2022-09-02T02:51:22;92792.03;;;20.30;91.23
7986;BME280;4038;42.612;23.066;2022-09-02T02:53:48;92778.47;;;20.02;92.27
7986;BME280;4038;42.612;23.066;2022-09-02T02:56:13;92776.06;;;19.98;92.51
7986;BME280;4038;42.612;23.066;2022-09-02T02:58:39;92785.31;;;19.68;94.08
7986;BME280;4038;42.612;23.066;2022-09-02T03:01:04;92785.34;;;20.01;92.71
7986;BME280;4038;42.612;23.066;2022-09-02T03:03:29;92777.78;;;19.94;92.29
7986;BME280;4038;42.612;23.066;2022-09-02T03:05:56;92777.66;;;19.76;93.36
7986;BME280;4038;42.612;23.066;2022-09-02T03:08:22;92776.13;;;19.91;92.58
7986;BME280;4038;42.612;23.066;2022-09-02T03:10:50;92788.91;;;19.94;91.79
7986;BME280;4038;42.612;23.066;2022-09-02T03:13:21;92789.16;;;20.13;90.50
7986;BME280;4038;42.612;23.066;2022-09-02T03:15:47;92792.41;;;20.34;89.07
7986;BME280;4038;42.612;23.066;2022-09-02T03:18:13;92792.75;;;20.38;88.27
7986;BME280;4038;42.612;23.066;2022-09-02T03:20:39;92795.66;;;20.48;87.62
7986;BME280;4038;42.612;23.066;2022-09-02T03:23:05;92805.06;;;20.60;86.73
7986;BME280;4038;42.612;23.066;2022-09-02T03:25:32;92797.69;;;20.15;89.50
7986;BME280;4038;42.612;23.066;2022-09-02T03:27:59;92805.03;;;20.35;88.63
7986;BME280;4038;42.612;23.066;2022-09-02T03:30:29;92806.75;;;20.23;89.41
7986;BME280;4038;42.612;23.066;2022-09-02T03:32:57;92802.47;;;20.54;86.03
7986;BME280;4038;42.612;23.066;2022-09-02T03:35:24;92795.31;;;20.44;85.90
7986;BME280;4038;42.612;23.066;2022-09-02T03:37:50;92800.03;;;20.58;85.07
7986;BME280;4038;42.612;23.066;2022-09-02T03:40:23;92809.25;;;20.69;84.53
7986;BME280;4038;42.612;23.066;2022-09-02T03:42:49;92813.59;;;21.04;81.67
7986;BME280;4038;42.612;23.066;2022-09-02T03:45:15;92812.78;;;20.94;82.87
7986;BME280;4038;42.612;23.066;2022-09-02T03:47:42;92804.91;;;19.85;90.61
7986;BME280;4038;42.612;23.066;2022-09-02T03:50:16;92810.81;;;19.89;93.40
7986;BME280;4038;42.612;23.066;2022-09-02T03:52:42;92810.34;;;19.68;95.13
7986;BME280;4038;42.612;23.066;2022-09-02T03:55:08;92813.66;;;19.74;95.96
7986;BME280;4038;42.612;23.066;2022-09-02T03:57:34;92811.84;;;20.09;93.41
7986;BME280;4038;42.612;23.066;2022-09-02T04:00:02;92822.56;;;20.13;93.53
7986;BME280;4038;42.612;23.066;2022-09-02T04:02:28;92822.59;;;20.05;94.15
7986;BME280;4038;42.612;23.066;2022-09-02T04:04:54;92828.78;;;20.36;92.57
7986;BME280;4038;42.612;23.066;2022-09-02T04:07:19;92825.88;;;20.19;93.51
7986;BME280;4038;42.612;23.066;2022-09-02T04:09:45;92821.69;;;20.43;91.93
7986;BME280;4038;42.612;23.066;2022-09-02T04:12:11;92822.16;;;20.56;90.14
7986;BME280;4038;42.612;23.066;2022-09-02T04:14:36;92831.34;;;20.42;90.95
7986;BME280;4038;42.612;23.066;2022-09-02T04:17:02;92832.31;;;20.61;90.42
7986;BME280;4038;42.612;23.066;2022-09-02T04:19:28;92831.59;;;20.61;90.03
7986;BME280;4038;42.612;23.066;2022-09-02T04:21:53;92838.88;;;20.81;88.99
7986;BME280;4038;42.612;23.066;2022-09-02T04:24:18;92832.41;;;20.46;90.52
7986;BME280;4038;42.612;23.066;2022-09-02T04:26:44;92839.75;;;20.67;89.40
7986;BME280;4038;42.612;23.066;2022-09-02T04:29:10;92845.06;;;20.72;89.49
7986;BME280;4038;42.612;23.066;2022-09-02T04:31:35;92856.47;;;20.67;90.21
7986;BME280;4038;42.612;23.066;2022-09-02T04:34:01;92847.91;;;20.64;90.42
7986;BME280;4038;42.612;23.066;2022-09-02T04:36:28;92847.81;;;20.80;89.95
7986;BME280;4038;42.612;23.066;2022-09-02T04:38:54;92856.25;;;20.89;89.69
7986;BME280;4038;42.612;23.066;2022-09-02T04:41:24;92860.03;;;20.84;90.42
7986;BME280;4038;42.612;23.066;2022-09-02T04:43:50;92861.78;;;20.72;90.33
7986;BME280;4038;42.612;23.066;2022-09-02T04:46:17;92849.63;;;20.85;89.36
7986;BME280;4038;42.612;23.066;2022-09-02T04:48:44;92867.34;;;20.97;88.71
7986;BME280;4038;42.612;23.066;2022-09-02T04:51:19;92864.34;;;20.78;89.26
7986;BME280;4038;42.612;23.066;2022-09-02T04:53:46;92873.63;;;20.80;89.60
7986;BME280;4038;42.612;23.066;2022-09-02T04:56:13;92859.75;;;20.73;89.06
7986;BME280;4038;42.612;23.066;2022-09-02T04:58:40;92866.41;;;20.77;89.42
7986;BME280;4038;42.612;23.066;2022-09-02T05:01:16;92878.38;;;20.62;90.24
7986;BME280;4038;42.612;23.066;2022-09-02T05:03:43;92872.38;;;20.41;90.97
7986;BME280;4038;42.612;23.066;2022-09-02T05:06:11;92873.06;;;20.82;89.36
7986;BME280;4038;42.612;23.066;2022-09-02T05:08:36;92877.94;;;20.74;89.95
7986;BME280;4038;42.612;23.066;2022-09-02T05:11:06;92884.31;;;20.67;90.67
7986;BME280;4038;42.612;23.066;2022-09-02T05:13:32;92879.50;;;20.19;92.78
7986;BME280;4038;42.612;23.066;2022-09-02T05:15:57;92885.50;;;20.08;93.88
7986;BME280;4038;42.612;23.066;2022-09-02T05:18:23;92891.22;;;20.18;92.76
7986;BME280;4038;42.612;23.066;2022-09-02T05:20:48;92891.13;;;19.93;94.22
7986;BME280;4038;42.612;23.066;2022-09-02T05:23:14;92885.22;;;20.29;91.22
7986;BME280;4038;42.612;23.066;2022-09-02T05:25:39;92882.56;;;20.06;92.58
7986;BME280;4038;42.612;23.066;2022-09-02T05:28:06;92893.53;;;19.97;93.68
7986;BME280;4038;42.612;23.066;2022-09-02T05:30:39;92885.78;;;19.87;94.25
7986;BME280;4038;42.612;23.066;2022-09-02T05:33:05;92880.25;;;19.80;94.60
7986;BME280;4038;42.612;23.066;2022-09-02T05:35:31;92879.84;;;19.83;95.06
7986;BME280;4038;42.612;23.066;2022-09-02T05:37:56;92883.56;;;19.78;95.17
7986;BME280;4038;42.612;23.066;2022-09-02T05:40:22;92860.59;;;19.70;94.80
7986;BME280;4038;42.612;23.066;2022-09-02T05:42:48;92872.00;;;19.97;93.97
7986;BME280;4038;42.612;23.066;2022-09-02T05:45:13;92877.94;;;20.01;93.67
7986;BME280;4038;42.612;23.066;2022-09-02T05:47:39;92875.00;;;19.92;94.02
7986;BME280;4038;42.612;23.066;2022-09-02T05:50:05;92873.94;;;19.79;94.92
7986;BME280;4038;42.612;23.066;2022-09-02T05:52:31;92874.25;;;19.91;94.78
7986;BME280;4038;42.612;23.066;2022-09-02T05:54:57;92872.75;;;19.98;95.21
7986;BME280;4038;42.612;23.066;2022-09-02T05:57:23;92872.38;;;20.01;94.73
7986;BME280;4038;42.612;23.066;2022-09-02T05:59:48;92865.63;;;20.12;93.43
7986;BME280;4038;42.612;23.066;2022-09-02T06:02:20;92874.19;;;20.46;91.18
7986;BME280;4038;42.612;23.066;2022-09-02T06:04:48;92876.72;;;20.19;93.36
7986;BME280;4038;42.612;23.066;2022-09-02T06:07:16;92875.19;;;20.34;92.68
7986;BME280;4038;42.612;23.066;2022-09-02T06:09:42;92866.84;;;19.94;94.02
7986;BME280;4038;42.612;23.066;2022-09-02T06:12:10;92878.22;;;20.20;92.47
7986;BME280;4038;42.612;23.066;2022-09-02T06:14:37;92878.47;;;20.47;90.63
7986;BME280;4038;42.612;23.066;2022-09-02T06:17:03;92879.94;;;20.48;90.67
7986;BME280;4038;42.612;23.066;2022-09-02T06:19:29;92873.81;;;20.50;91.40
7986;BME280;4038;42.612;23.066;2022-09-02T06:21:57;92865.25;;;20.55;90.26
7986;BME280;4038;42.612;23.066;2022-09-02T06:24:23;92878.28;;;20.78;89.00
7986;BME280;4038;42.612;23.066;2022-09-02T06:26:49;92879.03;;;20.78;88.69
7986;BME280;4038;42.612;23.066;2022-09-02T06:29:14;92881.88;;;20.95;88.20
7986;BME280;4038;42.612;23.066;2022-09-02T06:31:42;92881.47;;;20.99;87.95
7986;BME280;4038;42.612;23.066;2022-09-02T06:34:11;92888.13;;;21.53;84.55
7986;BME280;4038;42.612;23.066;2022-09-02T06:36:38;92893.53;;;21.86;82.73
7986;BME280;4038;42.612;23.066;2022-09-02T06:39:04;92891.28;;;22.09;82.92
7986;BME280;4038;42.612;23.066;2022-09-02T06:41:31;92894.53;;;22.32;80.75
7986;BME280;4038;42.612;23.066;2022-09-02T06:44:00;92901.63;;;22.60;78.88
7986;BME280;4038;42.612;23.066;2022-09-02T06:46:32;92895.88;;;22.85;77.80
7986;BME280;4038;42.612;23.066;2022-09-02T06:48:59;92900.16;;;22.42;79.31
7986;BME280;4038;42.612;23.066;2022-09-02T06:51:37;92896.78;;;22.16;81.29
7986;BME280;4038;42.612;23.066;2022-09-02T06:54:04;92898.06;;;22.33;81.45
7986;BME280;4038;42.612;23.066;2022-09-02T06:56:32;92896.63;;;21.55;84.62
7986;BME280;4038;42.612;23.066;2022-09-02T06:58:57;92902.56;;;21.94;84.31
7986;BME280;4038;42.612;23.066;2022-09-02T07:01:26;92909.38;;;21.83;83.83
7986;BME280;4038;42.612;23.066;2022-09-02T07:03:52;92897.38;;;21.56;84.72
7986;BME280;4038;42.612;23.066;2022-09-02T07:06:56;92896.69;;;22.07;82.92
7986;BME280;4038;42.612;23.066;2022-09-02T07:09:25;92905.72;;;22.15;81.64
7986;BME280;4038;42.612;23.066;2022-09-02T07:11:56;92903.63;;;23.04;78.19
7986;BME280;4038;42.612;23.066;2022-09-02T07:14:22;92912.25;;;22.88;78.35
7986;BME280;4038;42.612;23.066;2022-09-02T07:16:50;92906.63;;;23.15;76.59
7986;BME280;4038;42.612;23.066;2022-09-02T07:19:18;92907.06;;;23.12;76.40
7986;BME280;4038;42.612;23.066;2022-09-02T07:21:44;92912.09;;;22.42;77.35
7986;BME280;4038;42.612;23.066;2022-09-02T07:24:11;92914.31;;;23.24;75.26
7986;BME280;4038;42.612;23.066;2022-09-02T07:26:37;92907.16;;;23.41;73.52
7986;BME280;4038;42.612;23.066;2022-09-02T07:29:03;92907.81;;;23.12;74.32
7986;BME280;4038;42.612;23.066;2022-09-02T07:31:31;92913.63;;;22.97;73.90
7986;BME280;4038;42.612;23.066;2022-09-02T07:33:56;92918.28;;;22.68;75.63
7986;BME280;4038;42.612;23.066;2022-09-02T07:36:24;92916.47;;;22.80;74.24
7986;BME280;4038;42.612;23.066;2022-09-02T07:38:50;92925.78;;;23.55;71.53
7986;BME280;4038;42.612;23.066;2022-09-02T07:41:16;92918.13;;;23.19;72.77
7986;BME280;4038;42.612;23.066;2022-09-02T07:43:42;92927.44;;;23.78;69.50
7986;BME280;4038;42.612;23.066;2022-09-02T07:46:07;92924.63;;;23.78;69.31
7986;BME280;4038;42.612;23.066;2022-09-02T07:48:33;92916.78;;;22.84;73.67
7986;BME280;4038;42.612;23.066;2022-09-02T07:50:59;92926.69;;;22.50;75.42
7986;BME280;4038;42.612;23.066;2022-09-02T07:53:25;92925.13;;;22.57;73.50
7986;BME280;4038;42.612;23.066;2022-09-02T07:55:51;92933.03;;;22.51;74.54
7986;BME280;4038;42.612;23.066;2022-09-02T07:58:18;92927.34;;;22.58;74.09
7986;BME280;4038;42.612;23.066;2022-09-02T08:00:45;92933.41;;;22.65;73.26
7986;BME280;4038;42.612;23.066;2022-09-02T08:03:12;92933.44;;;22.91;71.24
7986;BME280;4038;42.612;23.066;2022-09-02T08:05:39;92939.53;;;23.34;70.12
7986;BME280;4038;42.612;23.066;2022-09-02T08:08:06;92953.34;;;23.59;68.68
7986;BME280;4038;42.612;23.066;2022-09-02T08:10:33;92932.25;;;23.48;68.44
7986;BME280;4038;42.612;23.066;2022-09-02T08:13:00;92953.22;;;23.66;68.61
7986;BME280;4038;42.612;23.066;2022-09-02T08:15:27;92940.00;;;23.40;69.38
7986;BME280;4038;42.612;23.066;2022-09-02T08:17:54;92940.72;;;23.77;67.97
7986;BME280;4038;42.612;23.066;2022-09-02T08:20:20;92945.59;;;23.77;68.85
7986;BME280;4038;42.612;23.066;2022-09-02T08:22:45;92941.31;;;23.76;68.03
7986;BME280;4038;42.612;23.066;2022-09-02T08:25:11;92949.72;;;23.95;68.66
7986;BME280;4038;42.612;23.066;2022-09-02T08:27:37;92942.06;;;23.13;72.21
7986;BME280;4038;42.612;23.066;2022-09-02T08:30:07;92947.00;;;22.95;72.79
7986;BME280;4038;42.612;23.066;2022-09-02T08:32:35;92933.84;;;22.61;75.82
7986;BME280;4038;42.612;23.066;2022-09-02T08:35:01;92944.00;;;22.66;75.88
7986;BME280;4038;42.612;23.066;2022-09-02T08:37:29;92944.19;;;22.68;75.84
7986;BME280;4038;42.612;23.066;2022-09-02T08:39:59;92936.34;;;23.11;74.05
7986;BME280;4038;42.612;23.066;2022-09-02T08:42:30;92938.25;;;22.64;75.36
7986;BME280;4038;42.612;23.066;2022-09-02T08:47:49;92937.84;;;22.68;75.87
7986;BME280;4038;42.612;23.066;2022-09-02T08:50:17;92928.56;;;22.65;75.61
7986;BME280;4038;42.612;23.066;2022-09-02T08:55:32;92923.50;;;22.54;76.86
7986;BME280;4038;42.612;23.066;2022-09-02T08:57:59;92924.56;;;22.85;75.33
7986;BME280;4038;42.612;23.066;2022-09-02T09:00:26;92929.97;;;23.37;72.49
7986;BME280;4038;42.612;23.066;2022-09-02T09:03:18;92937.28;;;23.59;70.36
7986;BME280;4038;42.612;23.066;2022-09-02T09:16:39;92928.22;;;24.74;65.78
7986;BME280;4038;42.612;23.066;2022-09-02T09:21:35;92915.50;;;24.93;67.64
7986;BME280;4038;42.612;23.066;2022-09-02T09:24:19;92927.34;;;24.72;65.06
7986;BME280;4038;42.612;23.066;2022-09-02T09:26:45;92929.81;;;24.87;64.79
7986;BME280;4038;42.612;23.066;2022-09-02T09:29:11;92932.34;;;25.43;63.13
7986;BME280;4038;42.612;23.066;2022-09-02T09:31:38;92927.63;;;25.97;62.49
7986;BME280;4038;42.612;23.066;2022-09-02T09:34:07;92931.78;;;25.35;62.08
7986;BME280;4038;42.612;23.066;2022-09-02T09:36:52;92930.41;;;25.05;64.32
7986;BME280;4038;42.612;23.066;2022-09-02T09:39:29;92926.19;;;24.36;66.00
7986;BME280;4038;42.612;23.066;2022-09-02T09:42:03;92909.22;;;24.44;66.20
7986;BME280;4038;42.612;23.066;2022-09-02T09:44:41;92925.41;;;24.84;65.89
7986;BME280;4038;42.612;23.066;2022-09-02T09:47:20;92913.63;;;25.66;63.69
7986;BME280;4038;42.612;23.066;2022-09-02T09:50:16;92921.63;;;25.60;63.51
7986;BME280;4038;42.612;23.066;2022-09-02T09:52:43;92909.03;;;25.31;63.83
7986;BME280;4038;42.612;23.066;2022-09-02T09:57:41;92908.59;;;24.74;64.01
7986;BME280;4038;42.612;23.066;2022-09-02T10:00:28;92913.75;;;24.78;64.61
7986;BME280;4038;42.612;23.066;2022-09-02T10:02:59;92910.06;;;24.85;65.26
7986;BME280;4038;42.612;23.066;2022-09-02T10:10:39;92907.50;;;25.08;64.86
7986;BME280;4038;42.612;23.066;2022-09-02T10:13:26;92912.75;;;24.64;65.90
7986;BME280;4038;42.612;23.066;2022-09-02T10:18:52;92915.72;;;24.56;65.76
7986;BME280;4038;42.612;23.066;2022-09-02T10:26:47;92899.91;;;25.61;63.14
7986;BME280;4038;42.612;23.066;2022-09-02T10:29:31;92903.81;;;25.98;61.33
7986;BME280;4038;42.612;23.066;2022-09-02T10:37:17;92898.94;;;25.78;62.96
7986;BME280;4038;42.612;23.066;2022-09-02T10:42:45;92892.81;;;26.45;62.02
7986;BME280;4038;42.612;23.066;2022-09-02T10:45:33;92892.16;;;27.01;59.25
7986;BME280;4038;42.612;23.066;2022-09-02T10:56:18;92893.13;;;29.62;52.06
7986;BME280;4038;42.612;23.066;2022-09-02T10:58:58;92881.66;;;27.13;58.16
7986;BME280;4038;42.612;23.066;2022-09-02T11:01:30;92884.31;;;28.16;56.61
7986;BME280;4038;42.612;23.066;2022-09-02T11:04:08;92893.94;;;28.36;54.94
7986;BME280;4038;42.612;23.066;2022-09-02T11:06:40;92891.72;;;27.51;59.47
7986;BME280;4038;42.612;23.066;2022-09-02T11:09:38;92877.97;;;27.10;59.07
7986;BME280;4038;42.612;23.066;2022-09-02T11:12:32;92872.22;;;27.20;58.31
7986;BME280;4038;42.612;23.066;2022-09-02T11:15:17;92873.28;;;26.47;60.04
7986;BME280;4038;42.612;23.066;2022-09-02T11:17:55;92876.97;;;26.61;61.28
7986;BME280;4038;42.612;23.066;2022-09-02T11:20:35;92876.13;;;27.03;59.88
7986;BME280;4038;42.612;23.066;2022-09-02T11:23:05;92875.19;;;27.22;59.21
7986;BME280;4038;42.612;23.066;2022-09-02T11:25:48;92874.56;;;26.67;59.91
7986;BME280;4038;42.612;23.066;2022-09-02T11:28:45;92871.56;;;26.21;61.42
7986;BME280;4038;42.612;23.066;2022-09-02T11:31:25;92870.03;;;27.07;59.86
7986;BME280;4038;42.612;23.066;2022-09-02T11:34:00;92857.06;;;27.72;57.31
7986;BME280;4038;42.612;23.066;2022-09-02T11:36:27;92852.31;;;26.71;58.91
7986;BME280;4038;42.612;23.066;2022-09-02T11:39:04;92861.09;;;26.66;59.48
7986;BME280;4038;42.612;23.066;2022-09-02T11:44:40;92855.06;;;26.93;58.31
7986;BME280;4038;42.612;23.066;2022-09-02T11:58:35;92851.88;;;29.71;51.21
7986;BME280;4038;42.612;23.066;2022-09-02T12:03:30;92844.34;;;29.48;51.21
7986;BME280;4038;42.612;23.066;2022-09-02T12:06:05;92848.03;;;29.50;51.50
7986;BME280;4038;42.612;23.066;2022-09-02T12:11:02;92838.78;;;29.77;51.95
7986;BME280;4038;42.612;23.066;2022-09-02T12:13:31;92843.66;;;30.32;50.50
7986;BME280;4038;42.612;23.066;2022-09-02T12:21:19;92832.03;;;29.96;51.59
7986;BME280;4038;42.612;23.066;2022-09-02T12:26:15;92826.97;;;30.08;51.29
7986;BME280;4038;42.612;23.066;2022-09-02T12:28:44;92833.63;;;29.33;52.08
7986;BME280;4038;42.612;23.066;2022-09-02T12:34:00;92826.06;;;28.71;54.58
7986;BME280;4038;42.612;23.066;2022-09-02T12:47:45;92806.63;;;27.52;58.25
7986;BME280;4038;42.612;23.066;2022-09-02T12:55:26;92812.81;;;26.81;60.83
7986;BME280;4038;42.612;23.066;2022-09-02T12:58:04;92818.66;;;26.62;60.93
7986;BME280;4038;42.612;23.066;2022-09-02T13:17:20;92804.63;;;26.73;59.50
7986;BME280;4038;42.612;23.066;2022-09-02T13:25:18;92815.31;;;26.98;59.58
7986;BME280;4038;42.612;23.066;2022-09-02T13:33:14;92828.34;;;28.35;55.82
7986;BME280;4038;42.612;23.066;2022-09-02T13:35:40;92830.81;;;27.81;56.69
7986;BME280;4038;42.612;23.066;2022-09-02T13:38:13;92830.28;;;27.96;56.22
7986;BME280;4038;42.612;23.066;2022-09-02T13:40:39;92812.03;;;27.13;57.96
7986;BME280;4038;42.612;23.066;2022-09-02T13:45:41;92813.34;;;28.08;54.26
7986;BME280;4038;42.612;23.066;2022-09-02T13:48:27;92823.25;;;27.48;55.73
7986;BME280;4038;42.612;23.066;2022-09-02T13:50:54;92825.53;;;26.82;59.23
7986;BME280;4038;42.612;23.066;2022-09-02T13:55:52;92829.97;;;25.86;59.57
7986;BME280;4038;42.612;23.066;2022-09-02T13:58:29;92830.03;;;25.98;57.44
7986;BME280;4038;42.612;23.066;2022-09-02T14:00:57;92817.84;;;26.05;57.92
7986;BME280;4038;42.612;23.066;2022-09-02T14:03:33;92827.81;;;25.96;57.71
7986;BME280;4038;42.612;23.066;2022-09-02T14:05:59;92835.06;;;25.78;56.97
7986;BME280;4038;42.612;23.066;2022-09-02T14:08:26;92810.63;;;25.38;58.72
7986;BME280;4038;42.612;23.066;2022-09-02T14:10:54;92820.19;;;25.45;56.65
7986;BME280;4038;42.612;23.066;2022-09-02T14:13:21;92821.97;;;25.71;56.68
7986;BME280;4038;42.612;23.066;2022-09-02T14:15:47;92825.13;;;25.35;58.76
7986;BME280;4038;42.612;23.066;2022-09-02T14:18:17;92823.78;;;25.36;56.90
7986;BME280;4038;42.612;23.066;2022-09-02T14:23:25;92834.41;;;26.22;54.82
7986;BME280;4038;42.612;23.066;2022-09-02T14:25:53;92832.22;;;25.57;55.71
7986;BME280;4038;42.612;23.066;2022-09-02T14:28:25;92824.91;;;25.21;56.22
7986;BME280;4038;42.612;23.066;2022-09-02T14:31:00;92851.88;;;25.36;55.55
7986;BME280;4038;42.612;23.066;2022-09-02T14:33:44;92844.88;;;25.37;55.09
7986;BME280;4038;42.612;23.066;2022-09-02T14:41:27;92839.22;;;25.77;53.19
7986;BME280;4038;42.612;23.066;2022-09-02T14:43:59;92847.63;;;25.77;54.51
7986;BME280;4038;42.612;23.066;2022-09-02T14:46:31;92851.72;;;25.03;56.38
7986;BME280;4038;42.612;23.066;2022-09-02T14:49:04;92848.28;;;25.14;55.46
7986;BME280;4038;42.612;23.066;2022-09-02T14:51:38;92851.94;;;25.16;54.88
7986;BME280;4038;42.612;23.066;2022-09-02T14:54:08;92858.66;;;25.02;55.57
7986;BME280;4038;42.612;23.066;2022-09-02T14:56:52;92854.59;;;24.64;55.97
7986;BME280;4038;42.612;23.066;2022-09-02T14:59:18;92859.59;;;24.75;56.08
7986;BME280;4038;42.612;23.066;2022-09-02T15:01:47;92853.41;;;24.77;56.28
7986;BME280;4038;42.612;23.066;2022-09-02T15:04:19;92869.53;;;24.57;57.67
7986;BME280;4038;42.612;23.066;2022-09-02T15:06:46;92855.06;;;25.11;56.67
7986;BME280;4038;42.612;23.066;2022-09-02T15:09:19;92863.47;;;24.70;63.45
7986;BME280;4038;42.612;23.066;2022-09-02T15:11:50;92858.72;;;24.73;66.56
7986;BME280;4038;42.612;23.066;2022-09-02T15:14:17;92855.13;;;24.41;64.98
7986;BME280;4038;42.612;23.066;2022-09-02T15:16:46;92857.75;;;24.39;64.04
7986;BME280;4038;42.612;23.066;2022-09-02T15:19:18;92851.25;;;24.46;65.32
7986;BME280;4038;42.612;23.066;2022-09-02T15:21:43;92860.72;;;24.22;67.97
7986;BME280;4038;42.612;23.066;2022-09-02T15:24:18;92853.47;;;24.48;67.28
7986;BME280;4038;42.612;23.066;2022-09-02T15:26:43;92860.41;;;24.28;67.28
7986;BME280;4038;42.612;23.066;2022-09-02T15:29:09;92859.84;;;24.29;67.38
7986;BME280;4038;42.612;23.066;2022-09-02T15:31:37;92868.09;;;23.98;70.03
7986;BME280;4038;42.612;23.066;2022-09-02T15:34:03;92860.59;;;23.26;73.44
7986;BME280;4038;42.612;23.066;2022-09-02T15:36:29;92881.09;;;23.38;72.77
7986;BME280;4038;42.612;23.066;2022-09-02T15:38:55;92880.88;;;23.72;72.96